createdAt,value
2022-09-27T04:54:41.186Z,25.1
2022-09-27T05:00:02.607Z,24.9
2022-09-27T05:05:24.298Z,24.8
2022-09-27T05:10:47.173Z,24.7
2022-09-27T05:16:09.269Z,24.6
2022-09-27T05:21:46.192Z,24.5
2022-09-27T05:27:12.234Z,24.4
2022-09-27T05:32:34.658Z,24.4
2022-09-27T05:37:58.472Z,24.4
2022-09-27T05:43:44.736Z,24.3
2022-09-27T05:49:07.581Z,24.3
2022-09-27T05:54:32.360Z,24.3
2022-09-27T06:00:10.650Z,24.3
2022-09-27T06:05:33.277Z,24.3
2022-09-27T06:10:57.004Z,24.3
2022-09-27T06:16:35.366Z,24.3
2022-09-27T06:22:13.206Z,24.2
2022-09-27T06:27:50.205Z,24.2
2022-09-27T06:33:29.156Z,24.2
2022-09-27T06:39:06.817Z,24.2
2022-09-27T06:44:46.923Z,24.2
2022-09-27T06:50:28.178Z,24.1
2022-09-27T06:56:05.659Z,24.1
2022-09-27T07:01:49.177Z,24.1
2022-09-27T07:07:17.290Z,24.1
2022-09-27T07:13:00.294Z,24.1
2022-09-27T07:18:07.136Z,24.1
2022-09-27T07:23:14.464Z,24.1
2022-09-27T07:28:55.208Z,24.1
2022-09-27T07:34:16.865Z,24.1
2022-09-27T07:39:55.365Z,24.1
2022-09-27T07:45:34.042Z,24.1
2022-09-27T07:50:56.314Z,24.1
2022-09-27T07:56:38.391Z,24.1
2022-09-27T08:02:17.526Z,24.1
2022-09-27T08:07:38.796Z,24.1
2022-09-27T08:13:01.434Z,24.1
2022-09-27T08:18:41.106Z,23.9
2022-09-27T08:24:02.619Z,23.9
2022-09-27T08:29:41.891Z,23.8
2022-09-27T08:35:25.113Z,23.7
2022-09-27T08:40:50.059Z,23.6
2022-09-27T08:46:28.159Z,23.6
2022-09-27T08:52:06.738Z,23.5
2022-09-27T08:57:43.735Z,23.5
2022-09-27T17:52:33.419Z,22.6
2022-09-27T17:58:11.506Z,22.6
2022-09-27T18:03:53.148Z,22.6
2022-09-27T18:09:15.840Z,22.6
2022-09-27T18:14:38.676Z,22.5
2022-09-27T18:20:16.576Z,22.4
2022-09-27T18:25:39.486Z,22.4
2022-09-27T18:31:18.510Z,22.4
2022-09-27T18:36:56.718Z,22.4
2022-09-27T18:43:05.223Z,22.3
2022-09-27T18:49:04.878Z,22.3
2022-09-27T18:54:49.181Z,22.2
2022-09-27T19:00:16.303Z,22.2
2022-09-27T19:06:00.568Z,22.2
2022-09-27T19:11:22.485Z,22.1
2022-09-27T19:17:12.181Z,22.1
2022-09-27T19:22:50.664Z,22.1
2022-09-27T19:28:32.532Z,22.1
2022-09-27T19:34:15.548Z,22.1
2022-09-27T19:39:38.348Z,22
2022-09-27T19:45:01.131Z,22
2022-09-27T19:50:39.126Z,22
2022-09-27T19:56:07.380Z,21.9
2022-09-27T20:01:34.729Z,21.9
2022-09-27T20:07:18.871Z,21.9
2022-09-27T20:12:45.642Z,21.9
2022-09-27T20:18:25.792Z,21.9
2022-09-27T20:24:03.584Z,21.9
2022-09-27T20:29:26.335Z,21.9
2022-09-27T20:35:35.797Z,21.9
2022-09-27T20:41:16.254Z,21.9
2022-09-27T20:46:54.330Z,21.9
2022-09-27T20:52:35.497Z,21.9
2022-09-27T20:58:35.481Z,21.8
2022-09-27T21:04:21.472Z,21.9
2022-09-27T21:09:58.281Z,21.8
2022-09-27T21:15:40.115Z,21.8
2022-09-27T21:21:19.263Z,21.8
2022-09-27T21:26:56.505Z,21.8
2022-09-27T21:32:34.941Z,21.8
2022-09-27T21:38:12.765Z,21.9
2022-09-27T21:43:50.045Z,21.9
2022-09-27T21:49:27.374Z,21.9
2022-09-27T21:55:10.851Z,21.9
